sensor_id;sensor_type;location;lat;lon;timestamp;temperature;humidity
33994;DHT22;20673;48.980;8.138;2022-10-29T00:00:42;12.00;99.90
33994;DHT22;20673;48.980;8.138;2022-10-29T00:03:08;12.00;99.90
33994;DHT22;20673;48.980;8.138;2022-10-29T00:05:35;12.00;99.90
33994;DHT22;20673;48.980;8.138;2022-10-29T00:08:01;12.00;99.90
33994;DHT22;20673;48.980;8.138;2022-10-29T00:10:27;11.90;99.90
33994;DHT22;20673;48.980;8.138;2022-10-29T00:12:54;11.90;99.90
33994;DHT22;20673;48.980;8.138;2022-10-29T00:15:20;11.90;99.90
33994;DHT22;20673;48.980;8.138;2022-10-29T00:17:47;11.90;99.90
33994;DHT22;20673;48.980;8.138;2022-10-29T00:20:13;11.80;99.90
33994;DHT22;20673;48.980;8.138;2022-10-29T00:22:39;11.80;99.90
33994;DHT22;20673;48.980;8.138;2022-10-29T00:25:05;11.80;99.90
33994;DHT22;20673;48.980;8.138;2022-10-29T00:27:31;11.80;99.90
33994;DHT22;20673;48.980;8.138;2022-10-29T00:29:57;11.80;99.90
33994;DHT22;20673;48.980;8.138;2022-10-29T00:32:23;11.80;99.90
33994;DHT22;20673;48.980;8.138;2022-10-29T00:34:49;11.80;99.90
33994;DHT22;20673;48.980;8.138;2022-10-29T00:37:15;11.80;99.90
33994;DHT22;20673;48.980;8.138;2022-10-29T00:39:41;11.70;99.90
33994;DHT22;20673;48.980;8.138;2022-10-29T00:42:13;11.70;99.90
33994;DHT22;20673;48.980;8.138;2022-10-29T00:44:40;11.70;99.90
33994;DHT22;20673;48.980;8.138;2022-10-29T00:47:16;11.80;99.90
33994;DHT22;20673;48.980;8.138;2022-10-29T00:49:59;11.80;99.90
33994;DHT22;20673;48.980;8.138;2022-10-29T00:52:24;11.70;99.90
33994;DHT22;20673;48.980;8.138;2022-10-29T00:54:53;11.70;99.90
33994;DHT22;20673;48.980;8.138;2022-10-29T00:57:21;11.70;99.90
33994;DHT22;20673;48.980;8.138;2022-10-29T00:59:50;11.70;99.90
33994;DHT22;20673;48.980;8.138;2022-10-29T01:02:17;11.70;99.90
33994;DHT22;20673;48.980;8.138;2022-10-29T01:04:43;11.70;99.90
33994;DHT22;20673;48.980;8.138;2022-10-29T01:07:10;11.60;99.90
33994;DHT22;20673;48.980;8.138;2022-10-29T01:09:37;11.60;99.90
33994;DHT22;20673;48.980;8.138;2022-10-29T01:20:50;11.50;99.90
33994;DHT22;20673;48.980;8.138;2022-10-29T01:29:21;11.50;99.90
33994;DHT22;20673;48.980;8.138;2022-10-29T01:34:50;11.50;99.90
33994;DHT22;20673;48.980;8.138;2022-10-29T01:40:04;11.40;99.90
33994;DHT22;20673;48.980;8.138;2022-10-29T01:42:44;11.50;99.90
33994;DHT22;20673;48.980;8.138;2022-10-29T01:45:16;11.40;99.90
33994;DHT22;20673;48.980;8.138;2022-10-29T01:47:53;11.40;99.90
33994;DHT22;20673;48.980;8.138;2022-10-29T01:50:18;11.40;99.90
33994;DHT22;20673;48.980;8.138;2022-10-29T01:52:46;11.40;99.90
33994;DHT22;20673;48.980;8.138;2022-10-29T01:55:14;11.30;99.90
33994;DHT22;20673;48.980;8.138;2022-10-29T01:57:41;11.30;99.90
33994;DHT22;20673;48.980;8.138;2022-10-29T02:00:08;11.20;99.90
33994;DHT22;20673;48.980;8.138;2022-10-29T02:11:17;11.30;99.90
33994;DHT22;20673;48.980;8.138;2022-10-29T02:13:45;11.30;99.90
33994;DHT22;20673;48.980;8.138;2022-10-29T02:16:17;11.20;99.90
33994;DHT22;20673;48.980;8.138;2022-10-29T02:18:46;11.10;99.90
33994;DHT22;20673;48.980;8.138;2022-10-29T02:21:14;11.00;99.90
33994;DHT22;20673;48.980;8.138;2022-10-29T02:23:41;11.10;99.90
33994;DHT22;20673;48.980;8.138;2022-10-29T02:26:07;11.10;99.90
33994;DHT22;20673;48.980;8.138;2022-10-29T02:28:33;11.00;99.90
33994;DHT22;20673;48.980;8.138;2022-10-29T02:30:59;11.00;99.90
33994;DHT22;20673;48.980;8.138;2022-10-29T02:33:25;11.00;99.90
33994;DHT22;20673;48.980;8.138;2022-10-29T02:35:51;11.00;99.90
33994;DHT22;20673;48.980;8.138;2022-10-29T02:38:17;11.10;99.90
33994;DHT22;20673;48.980;8.138;2022-10-29T02:40:43;11.00;99.90
33994;DHT22;20673;48.980;8.138;2022-10-29T02:43:09;11.00;99.90
33994;DHT22;20673;48.980;8.138;2022-10-29T02:45:35;10.90;99.90
33994;DHT22;20673;48.980;8.138;2022-10-29T02:48:01;10.90;99.90
33994;DHT22;20673;48.980;8.138;2022-10-29T02:50:27;10.80;99.90
33994;DHT22;20673;48.980;8.138;2022-10-29T02:52:53;10.80;99.90
33994;DHT22;20673;48.980;8.138;2022-10-29T02:55:19;10.80;99.90
33994;DHT22;20673;48.980;8.138;2022-10-29T02:57:45;10.70;99.90
33994;DHT22;20673;48.980;8.138;2022-10-29T03:00:12;10.70;99.90
33994;DHT22;20673;48.980;8.138;2022-10-29T03:02:38;10.80;99.90
33994;DHT22;20673;48.980;8.138;2022-10-29T03:05:05;10.80;99.90
33994;DHT22;20673;48.980;8.138;2022-10-29T03:07:39;10.70;99.90
33994;DHT22;20673;48.980;8.138;2022-10-29T03:10:04;10.70;99.90
33994;DHT22;20673;48.980;8.138;2022-10-29T03:12:31;10.60;99.90
33994;DHT22;20673;48.980;8.138;2022-10-29T03:14:57;10.60;99.90
33994;DHT22;20673;48.980;8.138;2022-10-29T03:17:23;10.60;99.90
33994;DHT22;20673;48.980;8.138;2022-10-29T03:19:49;10.60;99.90
33994;DHT22;20673;48.980;8.138;2022-10-29T03:22:15;10.70;99.90
33994;DHT22;20673;48.980;8.138;2022-10-29T03:24:41;10.70;99.90
33994;DHT22;20673;48.980;8.138;2022-10-29T03:27:08;10.60;99.90
33994;DHT22;20673;48.980;8.138;2022-10-29T03:29:34;10.60;99.90
33994;DHT22;20673;48.980;8.138;2022-10-29T03:31:59;10.60;99.90
33994;DHT22;20673;48.980;8.138;2022-10-29T03:34:26;10.60;99.90
33994;DHT22;20673;48.980;8.138;2022-10-29T03:36:51;10.60;99.90
33994;DHT22;20673;48.980;8.138;2022-10-29T03:39:17;10.50;99.90
33994;DHT22;20673;48.980;8.138;2022-10-29T03:41:43;10.50;99.90
33994;DHT22;20673;48.980;8.138;2022-10-29T03:44:09;10.50;99.90
33994;DHT22;20673;48.980;8.138;2022-10-29T03:46:35;10.50;99.90
33994;DHT22;20673;48.980;8.138;2022-10-29T03:49:01;10.40;99.90
33994;DHT22;20673;48.980;8.138;2022-10-29T03:51:27;10.40;99.90
33994;DHT22;20673;48.980;8.138;2022-10-29T03:53:53;10.40;99.90
33994;DHT22;20673;48.980;8.138;2022-10-29T03:56:19;10.30;99.90
33994;DHT22;20673;48.980;8.138;2022-10-29T03:58:45;10.30;99.90
33994;DHT22;20673;48.980;8.138;2022-10-29T04:01:11;10.40;99.90
33994;DHT22;20673;48.980;8.138;2022-10-29T04:03:37;10.50;99.90
33994;DHT22;20673;48.980;8.138;2022-10-29T04:06:10;10.40;99.90
33994;DHT22;20673;48.980;8.138;2022-10-29T04:08:37;10.30;99.90
33994;DHT22;20673;48.980;8.138;2022-10-29T04:11:03;10.30;99.90
33994;DHT22;20673;48.980;8.138;2022-10-29T04:13:29;10.30;99.90
33994;DHT22;20673;48.980;8.138;2022-10-29T04:15:55;10.20;99.90
33994;DHT22;20673;48.980;8.138;2022-10-29T04:18:22;10.20;99.90
33994;DHT22;20673;48.980;8.138;2022-10-29T04:20:49;10.20;99.90
33994;DHT22;20673;48.980;8.138;2022-10-29T04:23:14;10.10;99.90
33994;DHT22;20673;48.980;8.138;2022-10-29T04:25:41;10.10;99.90
33994;DHT22;20673;48.980;8.138;2022-10-29T04:28:06;10.10;99.90
33994;DHT22;20673;48.980;8.138;2022-10-29T04:30:33;10.10;99.90
33994;DHT22;20673;48.980;8.138;2022-10-29T04:32:59;10.10;99.90
33994;DHT22;20673;48.980;8.138;2022-10-29T04:35:27;10.00;99.90
33994;DHT22;20673;48.980;8.138;2022-10-29T04:37:53;10.00;99.90
33994;DHT22;20673;48.980;8.138;2022-10-29T04:40:22;10.00;99.90
33994;DHT22;20673;48.980;8.138;2022-10-29T04:42:49;9.90;99.90
33994;DHT22;20673;48.980;8.138;2022-10-29T04:45:15;10.00;99.90
33994;DHT22;20673;48.980;8.138;2022-10-29T04:47:41;9.90;99.90
33994;DHT22;20673;48.980;8.138;2022-10-29T04:50:07;9.90;99.90
33994;DHT22;20673;48.980;8.138;2022-10-29T04:52:34;9.90;99.90
33994;DHT22;20673;48.980;8.138;2022-10-29T04:55:00;9.90;99.90
33994;DHT22;20673;48.980;8.138;2022-10-29T04:57:26;9.90;99.90
33994;DHT22;20673;48.980;8.138;2022-10-29T04:59:52;9.90;99.90
33994;DHT22;20673;48.980;8.138;2022-10-29T05:02:18;9.80;99.90
33994;DHT22;20673;48.980;8.138;2022-10-29T05:04:44;9.80;99.90
33994;DHT22;20673;48.980;8.138;2022-10-29T05:07:10;9.90;99.90
33994;DHT22;20673;48.980;8.138;2022-10-29T05:09:36;9.80;99.90
33994;DHT22;20673;48.980;8.138;2022-10-29T05:12:02;9.80;99.90
33994;DHT22;20673;48.980;8.138;2022-10-29T05:14:28;9.90;99.90
33994;DHT22;20673;48.980;8.138;2022-10-29T05:16:54;9.90;99.90
33994;DHT22;20673;48.980;8.138;2022-10-29T05:19:20;9.80;99.90
33994;DHT22;20673;48.980;8.138;2022-10-29T05:21:45;9.70;99.90
33994;DHT22;20673;48.980;8.138;2022-10-29T05:24:11;9.70;99.90
33994;DHT22;20673;48.980;8.138;2022-10-29T05:26:37;9.70;99.90
33994;DHT22;20673;48.980;8.138;2022-10-29T05:29:03;9.60;99.90
33994;DHT22;20673;48.980;8.138;2022-10-29T05:31:29;9.60;99.90
33994;DHT22;20673;48.980;8.138;2022-10-29T05:33:55;9.60;99.90
33994;DHT22;20673;48.980;8.138;2022-10-29T05:36:21;9.70;99.90
33994;DHT22;20673;48.980;8.138;2022-10-29T05:38:47;9.60;99.90
33994;DHT22;20673;48.980;8.138;2022-10-29T05:41:13;9.60;99.90
33994;DHT22;20673;48.980;8.138;2022-10-29T05:43:39;9.60;99.90
33994;DHT22;20673;48.980;8.138;2022-10-29T05:46:05;9.50;99.90
33994;DHT22;20673;48.980;8.138;2022-10-29T05:48:30;9.50;99.90
33994;DHT22;20673;48.980;8.138;2022-10-29T05:50:56;9.50;99.90
33994;DHT22;20673;48.980;8.138;2022-10-29T05:53:23;9.50;99.90
33994;DHT22;20673;48.980;8.138;2022-10-29T05:55:50;9.50;99.90
33994;DHT22;20673;48.980;8.138;2022-10-29T05:58:16;9.50;99.90
33994;DHT22;20673;48.980;8.138;2022-10-29T06:00:42;9.50;99.90
33994;DHT22;20673;48.980;8.138;2022-10-29T06:03:13;9.50;99.90
33994;DHT22;20673;48.980;8.138;2022-10-29T06:05:41;9.50;99.90
33994;DHT22;20673;48.980;8.138;2022-10-29T06:08:07;9.50;99.90
33994;DHT22;20673;48.980;8.138;2022-10-29T06:10:33;9.40;99.90
33994;DHT22;20673;48.980;8.138;2022-10-29T06:12:59;9.50;99.90
33994;DHT22;20673;48.980;8.138;2022-10-29T06:15:25;9.50;99.90
33994;DHT22;20673;48.980;8.138;2022-10-29T06:17:51;9.50;99.90
33994;DHT22;20673;48.980;8.138;2022-10-29T06:20:19;9.60;99.90
33994;DHT22;20673;48.980;8.138;2022-10-29T06:22:46;9.60;99.90
33994;DHT22;20673;48.980;8.138;2022-10-29T06:25:12;9.70;99.90
33994;DHT22;20673;48.980;8.138;2022-10-29T06:27:38;9.70;99.90
33994;DHT22;20673;48.980;8.138;2022-10-29T06:30:04;9.70;99.90
33994;DHT22;20673;48.980;8.138;2022-10-29T06:32:31;9.70;99.90
33994;DHT22;20673;48.980;8.138;2022-10-29T06:34:57;9.70;99.90
33994;DHT22;20673;48.980;8.138;2022-10-29T06:37:23;9.80;99.90
33994;DHT22;20673;48.980;8.138;2022-10-29T06:39:49;9.80;99.90
33994;DHT22;20673;48.980;8.138;2022-10-29T06:42:15;9.80;99.90
33994;DHT22;20673;48.980;8.138;2022-10-29T06:44:41;9.90;99.90
33994;DHT22;20673;48.980;8.138;2022-10-29T06:47:07;9.90;99.90
33994;DHT22;20673;48.980;8.138;2022-10-29T06:49:33;9.90;99.90
33994;DHT22;20673;48.980;8.138;2022-10-29T06:51:59;10.00;99.90
33994;DHT22;20673;48.980;8.138;2022-10-29T06:54:24;10.10;99.90
33994;DHT22;20673;48.980;8.138;2022-10-29T06:56:50;10.10;99.90
33994;DHT22;20673;48.980;8.138;2022-10-29T06:59:16;10.20;99.90
33994;DHT22;20673;48.980;8.138;2022-10-29T07:01:42;10.30;99.90
33994;DHT22;20673;48.980;8.138;2022-10-29T07:04:08;10.40;99.90
33994;DHT22;20673;48.980;8.138;2022-10-29T07:06:34;10.50;99.90
33994;DHT22;20673;48.980;8.138;2022-10-29T07:09:00;10.60;99.90
33994;DHT22;20673;48.980;8.138;2022-10-29T07:11:26;10.80;99.90
33994;DHT22;20673;48.980;8.138;2022-10-29T07:13:52;10.80;99.90
33994;DHT22;20673;48.980;8.138;2022-10-29T07:16:18;10.90;99.90
33994;DHT22;20673;48.980;8.138;2022-10-29T07:18:44;10.90;99.90
33994;DHT22;20673;48.980;8.138;2022-10-29T07:21:10;11.10;99.90
33994;DHT22;20673;48.980;8.138;2022-10-29T07:23:37;11.20;99.90
33994;DHT22;20673;48.980;8.138;2022-10-29T07:26:03;11.30;99.90
33994;DHT22;20673;48.980;8.138;2022-10-29T07:28:29;11.40;99.90
33994;DHT22;20673;48.980;8.138;2022-10-29T07:30:57;11.50;99.90
33994;DHT22;20673;48.980;8.138;2022-10-29T07:33:24;11.60;99.90
33994;DHT22;20673;48.980;8.138;2022-10-29T07:35:50;11.70;99.90
33994;DHT22;20673;48.980;8.138;2022-10-29T07:38:16;11.90;99.90
33994;DHT22;20673;48.980;8.138;2022-10-29T07:40:45;12.00;99.90
33994;DHT22;20673;48.980;8.138;2022-10-29T07:43:13;12.20;99.90
33994;DHT22;20673;48.980;8.138;2022-10-29T07:45:39;12.40;99.90
33994;DHT22;20673;48.980;8.138;2022-10-29T07:48:08;12.70;99.90
33994;DHT22;20673;48.980;8.138;2022-10-29T07:50:34;12.90;99.90
33994;DHT22;20673;48.980;8.138;2022-10-29T07:53:01;13.10;99.90
33994;DHT22;20673;48.980;8.138;2022-10-29T07:55:28;13.40;99.90
33994;DHT22;20673;48.980;8.138;2022-10-29T07:57:57;13.60;99.90
33994;DHT22;20673;48.980;8.138;2022-10-29T08:00:26;13.90;99.90
33994;DHT22;20673;48.980;8.138;2022-10-29T08:02:56;14.10;99.90
33994;DHT22;20673;48.980;8.138;2022-10-29T08:05:23;14.30;99.90
33994;DHT22;20673;48.980;8.138;2022-10-29T08:07:51;14.50;99.90
33994;DHT22;20673;48.980;8.138;2022-10-29T08:10:18;14.80;99.90
33994;DHT22;20673;48.980;8.138;2022-10-29T08:12:54;15.10;99.90
33994;DHT22;20673;48.980;8.138;2022-10-29T08:15:22;15.40;99.90
33994;DHT22;20673;48.980;8.138;2022-10-29T08:17:49;15.60;99.90
33994;DHT22;20673;48.980;8.138;2022-10-29T08:20:16;15.90;99.90
33994;DHT22;20673;48.980;8.138;2022-10-29T08:22:42;16.10;99.90
33994;DHT22;20673;48.980;8.138;2022-10-29T08:25:08;16.40;99.90
33994;DHT22;20673;48.980;8.138;2022-10-29T08:27:35;16.60;99.90
33994;DHT22;20673;48.980;8.138;2022-10-29T08:30:01;16.80;99.90
33994;DHT22;20673;48.980;8.138;2022-10-29T08:32:27;17.00;99.90
33994;DHT22;20673;48.980;8.138;2022-10-29T08:34:53;17.30;99.90
33994;DHT22;20673;48.980;8.138;2022-10-29T08:37:20;17.60;99.90
33994;DHT22;20673;48.980;8.138;2022-10-29T08:39:46;17.70;99.90
33994;DHT22;20673;48.980;8.138;2022-10-29T08:42:20;17.90;99.90
33994;DHT22;20673;48.980;8.138;2022-10-29T08:47:31;18.20;99.90
33994;DHT22;20673;48.980;8.138;2022-10-29T08:50:33;18.40;99.90
33994;DHT22;20673;48.980;8.138;2022-10-29T08:52:50;18.60;99.90
33994;DHT22;20673;48.980;8.138;2022-10-29T08:55:22;18.90;99.90
33994;DHT22;20673;48.980;8.138;2022-10-29T08:57:57;19.20;99.90
33994;DHT22;20673;48.980;8.138;2022-10-29T09:00:23;19.40;99.90
33994;DHT22;20673;48.980;8.138;2022-10-29T09:02:53;19.60;99.90
33994;DHT22;20673;48.980;8.138;2022-10-29T09:05:23;19.80;99.90
33994;DHT22;20673;48.980;8.138;2022-10-29T09:10:42;20.40;99.90
33994;DHT22;20673;48.980;8.138;2022-10-29T09:13:59;20.70;99.90
33994;DHT22;20673;48.980;8.138;2022-10-29T09:16:14;21.00;99.90
33994;DHT22;20673;48.980;8.138;2022-10-29T09:24:32;21.90;99.90
33994;DHT22;20673;48.980;8.138;2022-10-29T09:27:00;22.20;99.90
33994;DHT22;20673;48.980;8.138;2022-10-29T09:32:28;22.60;99.90
33994;DHT22;20673;48.980;8.138;2022-10-29T09:35:09;23.00;99.90
33994;DHT22;20673;48.980;8.138;2022-10-29T09:40:17;23.20;99.90
33994;DHT22;20673;48.980;8.138;2022-10-29T09:42:58;23.50;99.90
33994;DHT22;20673;48.980;8.138;2022-10-29T09:48:27;24.10;99.90
33994;DHT22;20673;48.980;8.138;2022-10-29T09:51:07;24.30;99.90
33994;DHT22;20673;48.980;8.138;2022-10-29T09:53:40;24.30;99.90
33994;DHT22;20673;48.980;8.138;2022-10-29T09:56:06;24.60;99.90
33994;DHT22;20673;48.980;8.138;2022-10-29T09:58:35;24.80;99.90
33994;DHT22;20673;48.980;8.138;2022-10-29T10:01:03;24.70;99.90
33994;DHT22;20673;48.980;8.138;2022-10-29T10:03:33;24.60;99.90
33994;DHT22;20673;48.980;8.138;2022-10-29T10:06:03;25.20;99.90
33994;DHT22;20673;48.980;8.138;2022-10-29T10:08:34;24.80;99.90
33994;DHT22;20673;48.980;8.138;2022-10-29T10:11:03;25.00;99.90
33994;DHT22;20673;48.980;8.138;2022-10-29T10:13:36;25.10;99.90
33994;DHT22;20673;48.980;8.138;2022-10-29T10:16:01;25.20;99.90
33994;DHT22;20673;48.980;8.138;2022-10-29T10:21:03;25.80;99.90
33994;DHT22;20673;48.980;8.138;2022-10-29T10:23:40;26.60;99.90
33994;DHT22;20673;48.980;8.138;2022-10-29T10:31:44;25.80;99.90
33994;DHT22;20673;48.980;8.138;2022-10-29T10:36:46;25.90;99.90
33994;DHT22;20673;48.980;8.138;2022-10-29T10:39:24;25.50;99.90
33994;DHT22;20673;48.980;8.138;2022-10-29T10:41:53;25.40;99.90
33994;DHT22;20673;48.980;8.138;2022-10-29T10:44:20;24.90;99.90
33994;DHT22;20673;48.980;8.138;2022-10-29T10:46:48;24.70;99.90
33994;DHT22;20673;48.980;8.138;2022-10-29T10:49:21;24.50;99.90
33994;DHT22;20673;48.980;8.138;2022-10-29T10:51:53;24.40;99.90
33994;DHT22;20673;48.980;8.138;2022-10-29T10:56:58;24.40;99.90
33994;DHT22;20673;48.980;8.138;2022-10-29T10:59:28;24.50;99.90
33994;DHT22;20673;48.980;8.138;2022-10-29T11:01:55;24.70;99.90
33994;DHT22;20673;48.980;8.138;2022-10-29T11:04:33;24.80;99.90
33994;DHT22;20673;48.980;8.138;2022-10-29T11:06:59;24.90;99.90
33994;DHT22;20673;48.980;8.138;2022-10-29T11:09:40;24.90;99.90
33994;DHT22;20673;48.980;8.138;2022-10-29T11:12:10;25.00;99.90
33994;DHT22;20673;48.980;8.138;2022-10-29T11:14:42;25.30;99.90
33994;DHT22;20673;48.980;8.138;2022-10-29T11:17:22;25.60;99.90
33994;DHT22;20673;48.980;8.138;2022-10-29T11:19:47;25.50;99.90
33994;DHT22;20673;48.980;8.138;2022-10-29T11:22:28;25.90;99.90
33994;DHT22;20673;48.980;8.138;2022-10-29T11:30:14;26.00;99.90
33994;DHT22;20673;48.980;8.138;2022-10-29T11:32:54;26.40;99.90
33994;DHT22;20673;48.980;8.138;2022-10-29T11:38:22;26.50;99.90
33994;DHT22;20673;48.980;8.138;2022-10-29T11:41:02;26.60;99.90
33994;DHT22;20673;48.980;8.138;2022-10-29T11:43:28;26.90;99.90
33994;DHT22;20673;48.980;8.138;2022-10-29T11:45:56;27.00;99.90
33994;DHT22;20673;48.980;8.138;2022-10-29T11:51:50;26.60;99.90
33994;DHT22;20673;48.980;8.138;2022-10-29T11:57:07;26.70;99.90
33994;DHT22;20673;48.980;8.138;2022-10-29T11:59:40;27.00;99.90
33994;DHT22;20673;48.980;8.138;2022-10-29T12:07:33;26.70;99.90
33994;DHT22;20673;48.980;8.138;2022-10-29T12:13:01;27.60;99.90
33994;DHT22;20673;48.980;8.138;2022-10-29T12:26:15;26.60;99.90
33994;DHT22;20673;48.980;8.138;2022-10-29T12:31:49;26.20;99.90
33994;DHT22;20673;48.980;8.138;2022-10-29T12:34:20;26.90;99.90
33994;DHT22;20673;48.980;8.138;2022-10-29T12:39:39;26.60;99.90
33994;DHT22;20673;48.980;8.138;2022-10-29T12:42:15;26.20;99.90
33994;DHT22;20673;48.980;8.138;2022-10-29T12:47:38;26.30;99.90
33994;DHT22;20673;48.980;8.138;2022-10-29T12:53:14;26.30;99.90
33994;DHT22;20673;48.980;8.138;2022-10-29T12:55:41;26.50;99.90
33994;DHT22;20673;48.980;8.138;2022-10-29T13:09:15;26.90;99.90
33994;DHT22;20673;48.980;8.138;2022-10-29T13:11:47;27.10;99.90
33994;DHT22;20673;48.980;8.138;2022-10-29T13:14:20;27.40;99.90
33994;DHT22;20673;48.980;8.138;2022-10-29T13:16:47;27.70;99.90
33994;DHT22;20673;48.980;8.138;2022-10-29T13:19:21;27.90;99.90
33994;DHT22;20673;48.980;8.138;2022-10-29T13:21:59;27.60;99.90
33994;DHT22;20673;48.980;8.138;2022-10-29T13:24:28;27.30;99.90
33994;DHT22;20673;48.980;8.138;2022-10-29T13:26:55;27.20;99.90
33994;DHT22;20673;48.980;8.138;2022-10-29T13:29:46;27.20;99.90
33994;DHT22;20673;48.980;8.138;2022-10-29T13:35:04;27.20;99.90
33994;DHT22;20673;48.980;8.138;2022-10-29T13:37:53;26.60;99.90
33994;DHT22;20673;48.980;8.138;2022-10-29T13:43:00;25.80;99.90
33994;DHT22;20673;48.980;8.138;2022-10-29T13:45:28;25.50;99.90
33994;DHT22;20673;48.980;8.138;2022-10-29T13:48:00;25.30;99.90
33994;DHT22;20673;48.980;8.138;2022-10-29T13:50:25;25.30;99.90
33994;DHT22;20673;48.980;8.138;2022-10-29T13:52:52;25.10;99.90
33994;DHT22;20673;48.980;8.138;2022-10-29T13:55:21;25.00;99.90
33994;DHT22;20673;48.980;8.138;2022-10-29T13:58:01;24.90;99.90
33994;DHT22;20673;48.980;8.138;2022-10-29T14:00:30;24.60;99.90
33994;DHT22;20673;48.980;8.138;2022-10-29T14:03:00;24.50;99.90
33994;DHT22;20673;48.980;8.138;2022-10-29T14:05:29;24.20;99.90
33994;DHT22;20673;48.980;8.138;2022-10-29T14:18:40;23.30;99.90
33994;DHT22;20673;48.980;8.138;2022-10-29T14:21:16;23.10;99.90
33994;DHT22;20673;48.980;8.138;2022-10-29T14:23:55;22.90;99.90
33994;DHT22;20673;48.980;8.138;2022-10-29T14:26:27;22.80;99.90
33994;DHT22;20673;48.980;8.138;2022-10-29T14:28:53;22.60;99.90
33994;DHT22;20673;48.980;8.138;2022-10-29T14:31:20;22.50;99.90
33994;DHT22;20673;48.980;8.138;2022-10-29T14:33:54;22.40;99.90
33994;DHT22;20673;48.980;8.138;2022-10-29T14:41:28;22.00;99.90
33994;DHT22;20673;48.980;8.138;2022-10-29T14:49:32;21.50;99.90
33994;DHT22;20673;48.980;8.138;2022-10-29T14:52:13;21.40;99.90
33994;DHT22;20673;48.980;8.138;2022-10-29T14:54:53;21.20;99.90
33994;DHT22;20673;48.980;8.138;2022-10-29T14:57:21;21.10;99.90
33994;DHT22;20673;48.980;8.138;2022-10-29T14:59:54;21.00;99.90
33994;DHT22;20673;48.980;8.138;2022-10-29T15:02:19;20.90;99.90
33994;DHT22;20673;48.980;8.138;2022-10-29T15:04:47;20.80;99.90
33994;DHT22;20673;48.980;8.138;2022-10-29T15:09:48;20.50;99.90
33994;DHT22;20673;48.980;8.138;2022-10-29T15:12:23;20.40;99.90
33994;DHT22;20673;48.980;8.138;2022-10-29T15:14:51;20.30;99.90
33994;DHT22;20673;48.980;8.138;2022-10-29T15:17:28;20.20;99.90
33994;DHT22;20673;48.980;8.138;2022-10-29T15:19:58;20.10;99.90
33994;DHT22;20673;48.980;8.138;2022-10-29T15:22:27;20.00;99.90
33994;DHT22;20673;48.980;8.138;2022-10-29T15:24:57;19.90;99.90
33994;DHT22;20673;48.980;8.138;2022-10-29T15:27:25;19.80;99.90
33994;DHT22;20673;48.980;8.138;2022-10-29T15:29:51;19.60;99.90
33994;DHT22;20673;48.980;8.138;2022-10-29T15:32:18;19.60;99.90
33994;DHT22;20673;48.980;8.138;2022-10-29T15:34:48;19.50;99.90
33994;DHT22;20673;48.980;8.138;2022-10-29T15:39:58;19.40;99.90
33994;DHT22;20673;48.980;8.138;2022-10-29T15:42:34;19.20;99.90
33994;DHT22;20673;48.980;8.138;2022-10-29T15:47:42;19.00;99.90
33994;DHT22;20673;48.980;8.138;2022-10-29T15:50:11;18.80;99.90
33994;DHT22;20673;48.980;8.138;2022-10-29T15:52:40;18.80;99.90
33994;DHT22;20673;48.980;8.138;2022-10-29T15:55:53;18.80;99.90
33994;DHT22;20673;48.980;8.138;2022-10-29T15:57:47;18.60;99.90
33994;DHT22;20673;48.980;8.138;2022-10-29T16:00:16;18.50;99.90
33994;DHT22;20673;48.980;8.138;2022-10-29T16:02:44;18.60;99.90
33994;DHT22;20673;48.980;8.138;2022-10-29T16:05:10;18.50;99.90
33994;DHT22;20673;48.980;8.138;2022-10-29T16:07:38;18.30;99.90
33994;DHT22;20673;48.980;8.138;2022-10-29T16:10:05;18.30;99.90
33994;DHT22;20673;48.980;8.138;2022-10-29T16:12:33;18.20;99.90
33994;DHT22;20673;48.980;8.138;2022-10-29T16:14:59;18.10;99.90
33994;DHT22;20673;48.980;8.138;2022-10-29T16:17:26;17.90;99.90
33994;DHT22;20673;48.980;8.138;2022-10-29T16:19:52;17.80;99.90
33994;DHT22;20673;48.980;8.138;2022-10-29T16:22:28;17.70;99.90
33994;DHT22;20673;48.980;8.138;2022-10-29T16:24:54;17.60;99.90
33994;DHT22;20673;48.980;8.138;2022-10-29T16:27:20;17.50;99.90
33994;DHT22;20673;48.980;8.138;2022-10-29T16:29:46;17.40;99.90
33994;DHT22;20673;48.980;8.138;2022-10-29T16:32:18;17.30;99.90
33994;DHT22;20673;48.980;8.138;2022-10-29T16:34:46;17.20;99.90
33994;DHT22;20673;48.980;8.138;2022-10-29T16:37:14;17.20;99.90
33994;DHT22;20673;48.980;8.138;2022-10-29T16:39:41;17.10;99.90
33994;DHT22;20673;48.980;8.138;2022-10-29T16:42:50;17.20;99.90
33994;DHT22;20673;48.980;8.138;2022-10-29T16:44:59;17.10;99.90
33994;DHT22;20673;48.980;8.138;2022-10-29T16:47:25;17.10;99.90
33994;DHT22;20673;48.980;8.138;2022-10-29T16:49:51;16.90;99.90
33994;DHT22;20673;48.980;8.138;2022-10-29T16:52:18;16.80;99.90
33994;DHT22;20673;48.980;8.138;2022-10-29T16:54:44;16.70;99.90
33994;DHT22;20673;48.980;8.138;2022-10-29T16:57:10;16.80;99.90
33994;DHT22;20673;48.980;8.138;2022-10-29T16:59:36;16.80;99.90
33994;DHT22;20673;48.980;8.138;2022-10-29T17:02:02;16.70;99.90
33994;DHT22;20673;48.980;8.138;2022-10-29T17:04:28;16.60;99.90
33994;DHT22;20673;48.980;8.138;2022-10-29T17:06:54;16.70;99.90
33994;DHT22;20673;48.980;8.138;2022-10-29T17:09:20;16.70;99.90
33994;DHT22;20673;48.980;8.138;2022-10-29T17:11:47;16.60;99.90
33994;DHT22;20673;48.980;8.138;2022-10-29T17:14:13;16.50;99.90
33994;DHT22;20673;48.980;8.138;2022-10-29T17:16:39;16.40;99.90
33994;DHT22;20673;48.980;8.138;2022-10-29T17:19:05;16.30;99.90
33994;DHT22;20673;48.980;8.138;2022-10-29T17:21:31;16.20;99.90
33994;DHT22;20673;48.980;8.138;2022-10-29T17:23:58;16.10;99.90
33994;DHT22;20673;48.980;8.138;2022-10-29T17:26:24;16.00;99.90
33994;DHT22;20673;48.980;8.138;2022-10-29T17:28:50;15.90;99.90
33994;DHT22;20673;48.980;8.138;2022-10-29T17:31:16;15.90;99.90
33994;DHT22;20673;48.980;8.138;2022-10-29T17:33:42;16.00;99.90
33994;DHT22;20673;48.980;8.138;2022-10-29T17:36:11;16.10;99.90
33994;DHT22;20673;48.980;8.138;2022-10-29T17:38:39;16.00;99.90
33994;DHT22;20673;48.980;8.138;2022-10-29T17:41:06;15.90;99.90
33994;DHT22;20673;48.980;8.138;2022-10-29T17:43:32;15.90;99.90
33994;DHT22;20673;48.980;8.138;2022-10-29T17:45:58;15.80;99.90
33994;DHT22;20673;48.980;8.138;2022-10-29T17:48:24;15.60;99.90
33994;DHT22;20673;48.980;8.138;2022-10-29T17:50:53;15.50;99.90
33994;DHT22;20673;48.980;8.138;2022-10-29T17:53:21;15.40;99.90
33994;DHT22;20673;48.980;8.138;2022-10-29T17:55:48;15.30;99.90
33994;DHT22;20673;48.980;8.138;2022-10-29T17:58:15;15.20;99.90
33994;DHT22;20673;48.980;8.138;2022-10-29T18:00:42;15.20;99.90
33994;DHT22;20673;48.980;8.138;2022-10-29T18:03:08;15.10;99.90
33994;DHT22;20673;48.980;8.138;2022-10-29T18:05:35;15.00;99.90
33994;DHT22;20673;48.980;8.138;2022-10-29T18:08:02;15.00;99.90
33994;DHT22;20673;48.980;8.138;2022-10-29T18:10:30;14.90;99.90
33994;DHT22;20673;48.980;8.138;2022-10-29T18:12:58;15.00;99.90